Time;durP1;ratioP1;P1;durP2;ratioP2;P2;SDS_P1;SDS_P2;PMS_P1;PMS_P2;Temp;Humidity;BMP_temperature;BMP_pressure;BME280_temperature;BME280_humidity;BME280_pressure;Samples;Min_cycle;Max_cycle;Signal;HPM_P1;HPM_P2
2023/08/24 00:01:08;;;;;;;9.30;5.78;;;15.80;99.90;;;;;;5100917;28;20048;-62
2023/08/24 00:03:34;;;;;;;9.38;5.22;;;15.80;99.90;;;;;;5098205;28;20530;-61
2023/08/24 00:06:00;;;;;;;9.07;5.38;;;15.90;99.90;;;;;;5099097;28;20060;-62
2023/08/24 00:08:26;;;;;;;10.18;5.53;;;15.80;99.90;;;;;;5100634;28;20081;-62
2023/08/24 00:10:52;;;;;;;9.15;5.55;;;15.80;99.90;;;;;;5099352;28;20032;-62
2023/08/24 00:13:18;;;;;;;9.23;5.20;;;15.80;99.90;;;;;;5100651;28;20070;-62
2023/08/24 00:15:45;;;;;;;9.85;6.15;;;15.90;99.90;;;;;;5099609;28;20365;-62
2023/08/24 00:18:11;;;;;;;10.18;6.18;;;15.80;99.90;;;;;;5100350;28;20044;-62
2023/08/24 00:20:37;;;;;;;10.55;6.50;;;15.80;99.90;;;;;;5099789;28;20043;-62
2023/08/24 00:23:03;;;;;;;11.73;6.45;;;15.80;99.90;;;;;;5099981;28;20040;-62
2023/08/24 00:25:30;;;;;;;10.90;6.50;;;15.80;99.90;;;;;;5100673;28;20447;-62
2023/08/24 00:27:56;;;;;;;9.88;6.57;;;15.70;99.90;;;;;;5099146;28;20050;-61
2023/08/24 00:30:23;;;;;;;9.45;6.38;;;15.70;99.90;;;;;;5100320;28;20036;-61
2023/08/24 00:32:49;;;;;;;9.82;6.53;;;15.70;99.90;;;;;;5099244;28;20538;-63
2023/08/24 00:35:15;;;;;;;10.07;6.53;;;15.80;99.90;;;;;;5100486;28;20063;-61
2023/08/24 00:37:41;;;;;;;11.52;6.63;;;15.70;99.90;;;;;;5099031;28;20530;-58
2023/08/24 00:40:10;;;;;;;12.07;7.18;;;15.80;99.90;;;;;;5100108;28;20079;-61
2023/08/24 00:42:40;;;;;;;10.18;6.68;;;15.70;99.90;;;;;;5098577;28;20044;-62
2023/08/24 00:45:10;;;;;;;13.18;7.07;;;15.80;99.90;;;;;;5099152;28;20040;-61
2023/08/24 00:47:46;;;;;;;10.10;6.55;;;15.80;99.90;;;;;;5098854;28;20032;-61
2023/08/24 00:50:13;;;;;;;10.35;6.25;;;15.80;99.90;;;;;;5097529;28;20154;-62
2023/08/24 00:52:41;;;;;;;9.20;6.22;;;15.80;99.90;;;;;;5099778;28;20044;-61
2023/08/24 00:55:08;;;;;;;9.70;6.32;;;15.80;99.90;;;;;;5102499;28;20555;-62
2023/08/24 00:57:35;;;;;;;10.25;6.47;;;15.90;99.90;;;;;;5118842;28;20051;-61
2023/08/24 01:00:05;;;;;;;9.95;6.05;;;15.90;99.90;;;;;;5100568;28;20051;-62
2023/08/24 01:02:34;;;;;;;9.27;6.57;;;15.90;99.90;;;;;;5096776;28;20085;-62
2023/08/24 01:04:59;;;;;;;11.60;6.38;;;15.90;99.90;;;;;;5099540;28;20055;-62
2023/08/24 01:07:26;;;;;;;9.32;6.30;;;16.00;99.90;;;;;;5098756;28;20052;-61
2023/08/24 01:09:53;;;;;;;10.90;6.57;;;16.00;99.90;;;;;;5099704;28;20133;-62
2023/08/24 01:12:24;;;;;;;10.10;6.32;;;15.90;99.90;;;;;;5097931;28;20051;-61
2023/08/24 01:14:56;;;;;;;10.27;6.15;;;16.00;99.90;;;;;;5097930;28;20075;-63
2023/08/24 01:17:24;;;;;;;8.65;6.07;;;16.00;99.90;;;;;;5099595;28;20052;-62
2023/08/24 01:19:50;;;;;;;8.27;6.13;;;16.00;99.90;;;;;;5098067;28;20047;-62
2023/08/24 01:22:26;;;;;;;11.20;6.60;;;16.00;99.90;;;;;;5099695;28;20061;-61
2023/08/24 01:25:20;;;;;;;10.73;6.25;;;16.00;99.90;;;;;;5098936;28;20036;-61
2023/08/24 01:27:49;;;;;;;11.27;6.40;;;16.00;99.90;;;;;;5098051;28;20044;-62
2023/08/24 01:30:15;;;;;;;8.77;5.75;;;16.00;99.90;;;;;;5099167;28;20040;-63
2023/08/24 01:32:41;;;;;;;9.98;6.63;;;16.00;99.90;;;;;;5098233;28;20043;-62
2023/08/24 01:35:09;;;;;;;12.20;7.82;;;16.00;99.90;;;;;;5099425;28;20043;-61
2023/08/24 01:37:35;;;;;;;13.40;7.60;;;16.00;99.90;;;;;;5098535;28;20036;-62
2023/08/24 01:40:12;;;;;;;11.57;6.85;;;16.10;99.90;;;;;;5098942;28;20047;-61
2023/08/24 01:42:51;;;;;;;9.70;5.82;;;16.10;99.90;;;;;;5099107;28;20055;-61
2023/08/24 01:45:18;;;;;;;10.70;6.88;;;16.10;99.90;;;;;;5098409;28;20845;-62
2023/08/24 01:47:47;;;;;;;10.65;6.53;;;16.10;99.90;;;;;;5099256;28;20070;-62
2023/08/24 01:50:13;;;;;;;10.00;5.93;;;16.00;99.90;;;;;;5098203;28;20040;-62
2023/08/24 01:52:40;;;;;;;9.60;6.15;;;16.00;99.90;;;;;;5099385;28;20036;-62
2023/08/24 01:55:06;;;;;;;11.13;5.75;;;16.00;99.90;;;;;;5101614;28;20072;-61
2023/08/24 01:57:32;;;;;;;11.82;5.43;;;16.00;99.90;;;;;;5118980;28;20401;-62
2023/08/24 01:59:57;;;;;;;8.63;5.10;;;16.00;99.90;;;;;;5118583;28;20048;-61
2023/08/24 02:02:24;;;;;;;8.35;5.40;;;15.90;99.90;;;;;;5118303;28;20046;-61
2023/08/24 02:04:49;;;;;;;10.60;6.25;;;15.90;99.90;;;;;;5119032;28;20054;-62
2023/08/24 02:07:16;;;;;;;9.00;5.97;;;15.90;99.90;;;;;;5118504;28;20060;-62
2023/08/24 02:09:41;;;;;;;9.05;5.63;;;16.00;99.90;;;;;;5119492;28;20047;-61
2023/08/24 02:12:07;;;;;;;9.93;5.50;;;16.00;99.90;;;;;;5118911;28;20046;-61
2023/08/24 02:14:33;;;;;;;8.60;5.25;;;16.00;99.90;;;;;;5118900;28;20059;-62
2023/08/24 02:16:59;;;;;;;11.90;5.68;;;16.10;99.90;;;;;;5119593;28;20126;-61
2023/08/24 02:19:24;;;;;;;9.43;5.40;;;16.00;99.90;;;;;;5117974;28;20057;-62
2023/08/24 02:21:50;;;;;;;9.07;5.60;;;16.10;99.90;;;;;;5119041;28;20089;-62
2023/08/24 02:24:15;;;;;;;11.73;5.85;;;16.10;99.90;;;;;;5118122;28;20211;-61
2023/08/24 02:26:41;;;;;;;10.75;6.05;;;16.20;99.90;;;;;;5121088;28;20053;-61
2023/08/24 02:29:07;;;;;;;9.68;5.55;;;16.20;99.90;;;;;;5120896;28;20082;-61
2023/08/24 02:31:32;;;;;;;9.32;5.53;;;16.20;99.90;;;;;;5121805;28;20051;-62
2023/08/24 02:33:58;;;;;;;11.13;5.55;;;16.20;99.90;;;;;;5104660;28;20076;-61
2023/08/24 02:36:24;;;;;;;9.18;5.75;;;16.10;99.90;;;;;;5121849;28;20491;-62
2023/08/24 02:38:50;;;;;;;11.88;5.90;;;16.20;99.90;;;;;;5122950;28;20043;-62
2023/08/24 02:41:15;;;;;;;9.63;5.97;;;16.30;99.90;;;;;;5121605;28;20056;-62
2023/08/24 02:43:41;;;;;;;9.23;6.10;;;16.30;99.90;;;;;;5122904;28;20083;-61
2023/08/24 02:46:08;;;;;;;10.45;5.75;;;16.30;99.90;;;;;;5121845;28;20074;-62
2023/08/24 02:48:34;;;;;;;10.38;6.20;;;16.30;99.90;;;;;;5122498;28;20044;-62
2023/08/24 02:51:02;;;;;;;10.82;6.20;;;16.30;99.90;;;;;;5122407;28;20522;-62
2023/08/24 02:53:28;;;;;;;12.15;6.50;;;16.40;99.90;;;;;;5120455;28;20402;-62
2023/08/24 02:55:55;;;;;;;9.68;6.45;;;16.40;99.90;;;;;;5112952;28;20039;-61
2023/08/24 02:58:21;;;;;;;11.23;6.75;;;16.40;99.90;;;;;;5101065;28;20040;-62
2023/08/24 03:00:47;;;;;;;13.07;7.13;;;16.40;99.90;;;;;;5100646;28;20074;-62
2023/08/24 03:03:16;;;;;;;11.23;6.70;;;16.40;99.90;;;;;;5100496;28;20300;-62
2023/08/24 03:05:59;;;;;;;13.02;7.15;;;16.30;99.90;;;;;;5101313;28;20083;-62
2023/08/24 03:08:25;;;;;;;10.55;7.00;;;16.30;99.90;;;;;;5101911;28;20103;-61
2023/08/24 03:10:51;;;;;;;12.65;7.47;;;16.30;99.90;;;;;;5082323;28;20385;-62
2023/08/24 03:13:17;;;;;;;12.65;7.43;;;16.30;99.90;;;;;;5101616;28;20100;-61
2023/08/24 03:15:43;;;;;;;12.48;7.45;;;16.30;99.90;;;;;;5100811;28;20044;-62
2023/08/24 03:18:13;;;;;;;14.50;7.50;;;16.30;99.90;;;;;;5101649;28;20075;-62
2023/08/24 03:20:40;;;;;;;11.02;6.38;;;16.30;99.90;;;;;;5100965;28;20044;-62
2023/08/24 03:23:06;;;;;;;12.27;7.28;;;16.30;99.90;;;;;;5101120;28;20036;-61
2023/08/24 03:25:37;;;;;;;11.40;6.32;;;16.30;99.90;;;;;;5101661;28;20052;-61
2023/08/24 03:28:03;;;;;;;9.25;6.55;;;16.20;99.90;;;;;;5100336;28;20051;-60
2023/08/24 03:30:29;;;;;;;11.07;7.22;;;16.20;99.90;;;;;;5101595;28;20044;-61
2023/08/24 03:32:55;;;;;;;11.38;7.70;;;16.10;99.90;;;;;;5099852;28;20035;-60
2023/08/24 03:35:21;;;;;;;11.13;7.15;;;16.10;99.90;;;;;;5101608;28;20048;-60
2023/08/24 03:37:47;;;;;;;11.70;7.38;;;16.00;99.90;;;;;;5100047;28;20036;-60
2023/08/24 03:40:13;;;;;;;12.48;7.75;;;16.10;99.90;;;;;;5100691;28;20141;-61
2023/08/24 03:42:38;;;;;;;12.95;7.25;;;16.20;99.90;;;;;;5101211;28;20044;-60
2023/08/24 03:45:05;;;;;;;10.95;7.18;;;16.10;99.90;;;;;;5100014;28;20054;-60
2023/08/24 03:47:31;;;;;;;14.95;7.40;;;16.10;99.90;;;;;;5101085;28;20051;-60
2023/08/24 03:49:57;;;;;;;11.05;6.70;;;16.10;99.90;;;;;;5098245;28;20032;-61
2023/08/24 03:52:22;;;;;;;11.70;7.05;;;16.10;99.90;;;;;;5101210;28;20039;-60
2023/08/24 03:54:48;;;;;;;13.32;7.45;;;16.10;99.90;;;;;;5099776;28;20028;-60
2023/08/24 03:57:15;;;;;;;11.23;7.57;;;16.10;99.90;;;;;;5100214;28;20051;-60
2023/08/24 03:59:41;;;;;;;10.90;7.53;;;16.10;99.90;;;;;;5099299;28;20052;-60
2023/08/24 04:02:07;;;;;;;12.25;7.75;;;16.10;99.90;;;;;;5099232;28;20040;-59
2023/08/24 04:04:33;;;;;;;10.32;7.68;;;16.00;99.90;;;;;;5100961;28;20055;-61
2023/08/24 04:06:58;;;;;;;11.95;7.55;;;16.10;99.90;;;;;;5098667;28;20056;-60
2023/08/24 04:09:24;;;;;;;13.18;7.00;;;16.10;99.90;;;;;;5100896;28;20032;-60
2023/08/24 04:11:50;;;;;;;10.68;6.57;;;16.10;99.90;;;;;;5099690;28;20036;-60
2023/08/24 04:14:15;;;;;;;10.75;6.95;;;16.10;99.90;;;;;;5100649;28;20135;-60
2023/08/24 04:16:41;;;;;;;12.57;8.10;;;16.00;99.90;;;;;;5100236;28;20055;-59
2023/08/24 04:19:08;;;;;;;12.48;7.65;;;16.00;99.90;;;;;;5099560;28;20100;-61
2023/08/24 04:21:34;;;;;;;11.63;7.45;;;16.00;99.90;;;;;;5100497;28;20140;-60
2023/08/24 04:23:59;;;;;;;12.30;7.80;;;16.00;99.90;;;;;;5099219;28;20044;-60
2023/08/24 04:26:25;;;;;;;15.73;7.68;;;16.00;99.90;;;;;;5100436;28;20036;-60
2023/08/24 04:28:51;;;;;;;11.02;7.72;;;16.10;99.90;;;;;;5099492;28;20060;-60
2023/08/24 04:31:16;;;;;;;11.50;7.18;;;16.00;99.90;;;;;;5100082;28;20067;-60
2023/08/24 04:33:42;;;;;;;10.70;7.38;;;16.00;99.90;;;;;;5099891;28;20123;-60
2023/08/24 04:36:08;;;;;;;11.55;7.10;;;16.00;99.90;;;;;;5099377;28;20051;-60
2023/08/24 04:38:34;;;;;;;11.73;7.32;;;16.00;99.90;;;;;;5100293;28;20101;-61
2023/08/24 04:41:00;;;;;;;11.35;6.97;;;16.00;99.90;;;;;;5098760;28;20036;-60
2023/08/24 04:43:26;;;;;;;13.88;7.75;;;16.00;99.90;;;;;;5100422;28;20043;-60
2023/08/24 04:45:53;;;;;;;12.68;7.10;;;16.00;99.90;;;;;;5098909;28;20048;-60
2023/08/24 04:48:23;;;;;;;10.85;6.60;;;16.00;99.90;;;;;;5100077;28;20506;-60
2023/08/24 04:50:49;;;;;;;11.82;7.35;;;16.00;99.90;;;;;;5099561;28;20040;-60
2023/08/24 04:53:17;;;;;;;12.93;6.90;;;16.00;99.90;;;;;;5099049;28;20060;-60
2023/08/24 04:55:43;;;;;;;14.30;8.02;;;16.00;99.90;;;;;;5105473;28;20040;-60
2023/08/24 04:58:09;;;;;;;11.30;6.90;;;15.90;99.90;;;;;;5115053;28;20104;-62
2023/08/24 05:00:38;;;;;;;14.30;6.80;;;15.90;99.90;;;;;;5116033;28;20051;-60
2023/08/24 05:03:05;;;;;;;13.93;7.50;;;16.00;99.90;;;;;;5105067;28;20487;-61
2023/08/24 05:05:32;;;;;;;10.40;7.10;;;16.00;99.90;;;;;;5105049;28;20095;-60
2023/08/24 05:07:59;;;;;;;9.77;6.15;;;16.00;99.90;;;;;;5106135;28;20048;-60
2023/08/24 05:10:25;;;;;;;10.88;6.50;;;15.90;99.90;;;;;;5115193;28;20075;-60
2023/08/24 05:12:50;;;;;;;12.38;6.70;;;15.90;99.90;;;;;;5115875;28;20330;-60
2023/08/24 05:15:16;;;;;;;11.18;6.88;;;16.00;99.90;;;;;;5114682;28;20051;-60
2023/08/24 05:17:42;;;;;;;12.13;6.82;;;16.00;99.90;;;;;;5115894;28;20101;-60
2023/08/24 05:20:11;;;;;;;12.35;6.75;;;16.10;99.90;;;;;;5114392;28;20099;-60
2023/08/24 05:22:38;;;;;;;10.98;6.40;;;16.10;99.90;;;;;;5116347;28;20398;-59
2023/08/24 05:25:07;;;;;;;12.70;6.97;;;16.20;99.90;;;;;;5115784;28;20111;-59
2023/08/24 05:27:33;;;;;;;13.68;6.95;;;16.30;99.90;;;;;;5114781;28;20483;-60
2023/08/24 05:29:58;;;;;;;11.52;6.55;;;16.40;99.90;;;;;;5115650;28;20043;-60
2023/08/24 05:32:24;;;;;;;11.63;6.90;;;16.40;99.90;;;;;;5114266;28;20043;-60
2023/08/24 05:34:50;;;;;;;11.23;6.65;;;16.40;99.90;;;;;;5116216;28;20407;-61
2023/08/24 05:37:16;;;;;;;12.07;6.88;;;16.50;99.90;;;;;;5113030;28;20587;-60
2023/08/24 05:39:42;;;;;;;9.98;6.63;;;16.40;99.90;;;;;;5115560;28;20081;-61
2023/08/24 05:42:09;;;;;;;14.07;6.72;;;16.50;99.90;;;;;;5116062;28;20052;-61
2023/08/24 05:44:35;;;;;;;11.55;6.82;;;16.50;99.90;;;;;;5118362;28;20040;-58
2023/08/24 05:47:00;;;;;;;12.35;6.95;;;16.60;99.90;;;;;;5119229;28;20046;-59
2023/08/24 05:49:26;;;;;;;11.35;6.38;;;16.60;99.90;;;;;;5116850;28;20052;-60
2023/08/24 05:51:52;;;;;;;14.18;6.03;;;16.60;99.90;;;;;;5117547;28;20043;-60
2023/08/24 05:54:18;;;;;;;11.98;6.10;;;16.60;99.90;;;;;;5118499;28;20046;-61
2023/08/24 05:56:45;;;;;;;12.68;6.45;;;16.60;99.90;;;;;;5102278;28;20047;-60
2023/08/24 05:59:11;;;;;;;14.20;6.25;;;16.70;99.90;;;;;;5098490;28;20542;-59
2023/08/24 06:01:41;;;;;;;11.57;6.20;;;16.80;99.90;;;;;;5099901;28;20074;-60
2023/08/24 06:04:07;;;;;;;10.18;6.38;;;17.00;99.90;;;;;;5102804;28;20048;-61
2023/08/24 06:06:33;;;;;;;11.20;5.88;;;16.90;99.90;;;;;;5101233;28;20052;-61
2023/08/24 06:08:58;;;;;;;10.65;5.60;;;17.00;99.90;;;;;;5102268;28;20101;-61
2023/08/24 06:11:24;;;;;;;12.85;6.13;;;17.10;99.90;;;;;;5102002;28;20055;-60
2023/08/24 06:13:53;;;;;;;14.15;5.60;;;17.00;99.90;;;;;;5101348;28;20047;-61
2023/08/24 06:16:19;;;;;;;12.82;6.13;;;17.20;99.90;;;;;;5100957;28;20044;-60
2023/08/24 06:18:45;;;;;;;11.23;6.07;;;17.10;99.90;;;;;;5102161;28;20040;-60
2023/08/24 06:21:10;;;;;;;11.93;6.25;;;17.10;99.90;;;;;;5102898;28;20512;-59
2023/08/24 06:23:36;;;;;;;11.10;6.25;;;17.20;99.90;;;;;;5101541;28;20047;-61
2023/08/24 06:26:02;;;;;;;12.10;5.90;;;17.20;99.90;;;;;;5102458;28;20040;-61
2023/08/24 06:28:28;;;;;;;11.93;6.22;;;17.20;99.90;;;;;;5101400;28;20044;-60
2023/08/24 06:30:55;;;;;;;12.95;6.45;;;17.20;99.90;;;;;;5102985;28;20525;-60
2023/08/24 06:33:21;;;;;;;13.93;6.95;;;17.30;99.90;;;;;;5101903;28;20075;-60
2023/08/24 06:35:46;;;;;;;12.20;6.50;;;17.40;99.90;;;;;;5102169;28;20052;-60
2023/08/24 06:38:13;;;;;;;13.85;7.05;;;17.50;99.90;;;;;;5101405;28;20048;-60
2023/08/24 06:40:39;;;;;;;12.48;7.20;;;17.60;99.90;;;;;;5106000;28;20039;-60
2023/08/24 06:43:05;;;;;;;16.05;7.70;;;17.70;99.90;;;;;;5101589;28;20100;-61
2023/08/24 06:45:31;;;;;;;15.68;9.27;;;17.70;99.90;;;;;;5097364;28;20067;-60
2023/08/24 06:47:56;;;;;;;12.60;7.57;;;17.70;99.90;;;;;;5098565;28;20115;-60
2023/08/24 06:50:22;;;;;;;14.10;8.55;;;17.80;99.90;;;;;;5097196;28;20622;-60
2023/08/24 06:52:48;;;;;;;14.13;7.20;;;17.90;99.90;;;;;;5096503;28;20048;-60
2023/08/24 06:55:14;;;;;;;12.38;6.35;;;17.90;99.90;;;;;;5100815;28;20096;-59
2023/08/24 06:57:40;;;;;;;13.55;6.85;;;18.00;99.90;;;;;;5117191;28;20066;-59
2023/08/24 07:00:12;;;;;;;12.20;6.72;;;18.20;99.90;;;;;;5118310;28;20047;-61
2023/08/24 07:02:38;;;;;;;12.27;5.68;;;18.20;99.90;;;;;;5116450;28;20400;-61
2023/08/24 07:05:08;;;;;;;11.15;5.75;;;18.20;99.90;;;;;;5118804;28;20116;-61
2023/08/24 07:07:34;;;;;;;10.38;4.72;;;18.30;99.90;;;;;;5117358;28;20051;-61
2023/08/24 07:10:00;;;;;;;8.77;4.55;;;18.30;99.90;;;;;;5118070;28;20051;-59
2023/08/24 07:12:26;;;;;;;9.95;3.78;;;18.40;99.90;;;;;;5117262;28;20150;-60
2023/08/24 07:14:52;;;;;;;10.35;3.95;;;18.50;99.90;;;;;;5116461;28;20197;-60
2023/08/24 07:17:18;;;;;;;9.25;4.10;;;18.60;99.90;;;;;;5118505;28;20557;-61
2023/08/24 07:19:43;;;;;;;8.27;3.85;;;18.70;99.90;;;;;;5116667;28;20040;-61
2023/08/24 07:22:09;;;;;;;8.98;3.78;;;18.80;99.90;;;;;;5118160;28;20106;-60
2023/08/24 07:24:36;;;;;;;11.23;4.38;;;18.90;99.90;;;;;;5117423;28;20047;-61
2023/08/24 07:27:03;;;;;;;9.23;3.58;;;19.00;99.90;;;;;;5117559;28;20103;-60
2023/08/24 07:29:29;;;;;;;8.63;3.10;;;19.00;99.90;;;;;;5116449;28;20517;-60
2023/08/24 07:31:54;;;;;;;8.98;3.03;;;19.20;99.90;;;;;;5117154;28;20043;-60
2023/08/24 07:34:22;;;;;;;5.38;3.00;;;19.20;99.90;;;;;;5117806;28;20084;-62
2023/08/24 07:36:50;;;;;;;9.60;2.83;;;19.30;99.90;;;;;;5116826;28;20047;-60
2023/08/24 07:39:15;;;;;;;6.20;2.63;;;19.40;99.90;;;;;;5117753;28;20039;-60
2023/08/24 07:41:42;;;;;;;10.18;2.80;;;19.50;99.90;;;;;;5116974;28;20074;-61
2023/08/24 07:44:08;;;;;;;7.38;2.63;;;19.60;99.90;;;;;;5117726;28;20099;-60
2023/08/24 07:46:34;;;;;;;7.53;2.83;;;19.70;99.90;;;;;;5117295;28;20047;-60
2023/08/24 07:48:59;;;;;;;8.77;2.63;;;19.70;97.20;;;;;;5119221;28;20039;-61
2023/08/24 07:51:25;;;;;;;6.63;2.78;;;19.80;99.90;;;;;;5121543;28;20095;-61
2023/08/24 07:53:52;;;;;;;8.38;2.95;;;19.90;98.10;;;;;;5119934;28;20071;-61
2023/08/24 07:56:18;;;;;;;6.85;2.58;;;20.00;94.80;;;;;;5108160;28;20048;-59
2023/08/24 07:58:44;;;;;;;7.50;2.67;;;20.00;93.80;;;;;;5099836;28;20073;-61
2023/08/24 08:01:11;;;;;;;6.93;2.42;;;20.10;94.00;;;;;;5104209;28;20040;-60
2023/08/24 08:03:37;;;;;;;8.40;2.28;;;20.20;93.90;;;;;;5103398;28;20531;-62
2023/08/24 08:06:04;;;;;;;8.85;2.92;;;20.40;94.90;;;;;;5098143;28;20052;-61
2023/08/24 08:08:30;;;;;;;7.53;2.42;;;20.40;91.70;;;;;;5100173;28;20052;-61
2023/08/24 08:11:01;;;;;;;7.25;2.80;;;20.40;93.70;;;;;;5099053;28;20040;-60
2023/08/24 08:13:28;;;;;;;8.90;2.60;;;20.40;92.70;;;;;;5099009;28;20530;-61
2023/08/24 08:15:54;;;;;;;7.25;2.83;;;20.40;90.00;;;;;;5099725;28;20044;-61
2023/08/24 08:18:20;;;;;;;8.65;2.65;;;20.40;87.50;;;;;;5100206;28;20047;-61
2023/08/24 08:20:45;;;;;;;8.20;2.88;;;20.50;90.10;;;;;;5099892;28;20068;-62
2023/08/24 08:23:11;;;;;;;8.63;2.97;;;20.60;86.40;;;;;;5099578;28;20044;-61
2023/08/24 08:25:37;;;;;;;8.10;3.40;;;20.60;86.40;;;;;;5100058;28;20052;-61
2023/08/24 08:28:03;;;;;;;8.57;3.30;;;20.70;88.40;;;;;;5099394;28;20055;-61
2023/08/24 08:30:29;;;;;;;7.50;2.70;;;20.60;82.00;;;;;;5100469;28;20040;-61
2023/08/24 08:32:55;;;;;;;6.07;2.88;;;20.80;87.50;;;;;;5080947;28;20036;-61
2023/08/24 08:35:22;;;;;;;8.55;3.88;;;21.00;85.00;;;;;;5100362;28;20047;-62
2023/08/24 08:37:49;;;;;;;8.13;2.65;;;21.10;86.60;;;;;;5100227;28;20048;-61
2023/08/24 08:40:17;;;;;;;7.43;3.75;;;21.20;88.90;;;;;;5099318;28;20048;-61
2023/08/24 08:42:43;;;;;;;10.45;4.03;;;21.10;81.40;;;;;;5100094;28;20046;-61
2023/08/24 08:45:10;;;;;;;7.07;3.83;;;21.20;86.30;;;;;;5098905;28;20067;-61
2023/08/24 08:47:36;;;;;;;9.02;4.43;;;21.20;88.60;;;;;;5100176;28;20054;-59
2023/08/24 08:50:03;;;;;;;10.18;4.93;;;21.20;87.30;;;;;;5098725;28;20098;-61
2023/08/24 08:52:31;;;;;;;8.52;3.78;;;21.20;86.00;;;;;;5100152;28;20048;-62
2023/08/24 08:54:57;;;;;;;9.18;4.05;;;21.40;89.60;;;;;;5099708;28;20042;-60
2023/08/24 08:57:25;;;;;;;10.15;5.07;;;21.30;91.40;;;;;;5098920;28;20121;-61
2023/08/24 08:59:52;;;;;;;9.52;4.38;;;21.30;92.00;;;;;;5098356;28;20094;-61
2023/08/24 09:02:20;;;;;;;12.02;4.35;;;21.30;93.10;;;;;;5098578;28;20055;-61
2023/08/24 09:04:49;;;;;;;10.23;4.05;;;21.30;93.90;;;;;;5099620;28;20047;-61
2023/08/24 09:07:15;;;;;;;10.40;4.60;;;21.40;94.30;;;;;;5098748;28;20112;-61
2023/08/24 09:09:41;;;;;;;11.20;4.30;;;21.40;91.80;;;;;;5099908;28;20032;-61
2023/08/24 09:12:07;;;;;;;10.77;4.93;;;21.60;92.10;;;;;;5099343;28;20667;-60
2023/08/24 09:14:34;;;;;;;9.35;4.70;;;21.70;91.90;;;;;;5098714;28;20067;-61
2023/08/24 09:16:59;;;;;;;10.38;5.35;;;21.80;90.80;;;;;;5099326;28;20048;-61
2023/08/24 09:19:29;;;;;;;8.80;5.15;;;21.80;89.80;;;;;;5098399;28;20050;-61
2023/08/24 09:21:59;;;;;;;10.18;5.45;;;21.80;84.80;;;;;;5099428;28;20054;-61
2023/08/24 09:24:32;;;;;;;9.93;5.13;;;21.90;88.70;;;;;;5098768;28;20040;-60
2023/08/24 09:26:58;;;;;;;11.07;5.95;;;21.90;90.50;;;;;;5098995;28;20085;-60
2023/08/24 09:29:24;;;;;;;9.10;4.43;;;22.00;84.50;;;;;;5099432;28;20048;-60
2023/08/24 09:31:51;;;;;;;9.52;5.28;;;22.00;91.10;;;;;;5098375;28;20032;-60
2023/08/24 09:34:21;;;;;;;9.73;4.70;;;21.90;82.50;;;;;;5097885;28;20376;-60
2023/08/24 09:36:46;;;;;;;10.75;5.35;;;21.90;89.10;;;;;;5096039;28;20167;-60
2023/08/24 09:39:16;;;;;;;10.00;5.15;;;21.90;87.70;;;;;;5099351;28;20051;-61
2023/08/24 09:41:44;;;;;;;9.75;4.72;;;21.80;90.20;;;;;;5098134;28;20048;-60
2023/08/24 09:44:10;;;;;;;8.98;5.03;;;21.80;90.30;;;;;;5098962;28;20048;-60
2023/08/24 09:46:38;;;;;;;9.55;5.22;;;21.80;90.40;;;;;;5098891;28;20048;-61
2023/08/24 09:49:08;;;;;;;12.68;4.57;;;21.70;91.20;;;;;;5097841;28;20103;-61
2023/08/24 09:51:35;;;;;;;9.90;5.28;;;21.80;92.10;;;;;;5097614;28;20040;-60
2023/08/24 09:54:09;;;;;;;11.25;5.30;;;21.70;91.70;;;;;;5079785;28;20044;-60
2023/08/24 09:56:41;;;;;;;10.45;5.40;;;21.60;90.80;;;;;;5114602;28;20063;-61
2023/08/24 09:59:21;;;;;;;10.35;4.40;;;21.60;91.40;;;;;;5119031;28;20069;-61
2023/08/24 10:01:49;;;;;;;11.13;4.78;;;21.60;90.60;;;;;;5118415;28;20051;-61
2023/08/24 10:04:17;;;;;;;10.80;4.82;;;21.50;92.00;;;;;;5118371;28;20055;-60
2023/08/24 10:06:44;;;;;;;10.60;4.55;;;21.50;92.20;;;;;;5101657;28;20078;-61
2023/08/24 10:09:31;;;;;;;9.90;4.90;;;21.50;92.60;;;;;;5099147;28;20074;-61
2023/08/24 10:12:00;;;;;;;8.65;4.60;;;21.50;92.60;;;;;;5097574;28;20484;-60
2023/08/24 10:14:47;;;;;;;10.00;4.95;;;21.50;93.50;;;;;;5097890;28;20097;-61
2023/08/24 10:17:14;;;;;;;8.88;4.90;;;21.40;93.50;;;;;;5098581;28;20083;-60
2023/08/24 10:19:42;;;;;;;10.15;5.40;;;21.40;94.00;;;;;;5097498;28;20040;-60
2023/08/24 10:22:08;;;;;;;9.55;5.90;;;21.40;95.20;;;;;;5098611;28;20048;-60
2023/08/24 10:24:35;;;;;;;11.82;5.60;;;21.40;94.60;;;;;;5078449;28;20535;-59
2023/08/24 10:27:03;;;;;;;13.15;6.25;;;21.30;94.40;;;;;;5078427;28;20041;-60
2023/08/24 10:29:29;;;;;;;12.50;5.18;;;21.30;94.50;;;;;;5078304;28;20048;-60
2023/08/24 10:31:56;;;;;;;9.68;5.50;;;21.30;96.00;;;;;;5084416;28;20071;-60
2023/08/24 10:34:22;;;;;;;8.80;4.93;;;21.30;97.30;;;;;;5098023;28;20151;-60
2023/08/24 10:36:54;;;;;;;13.38;5.22;;;21.30;97.50;;;;;;5096642;28;20044;-60
2023/08/24 10:39:27;;;;;;;11.73;5.70;;;21.30;98.70;;;;;;5098536;28;20151;-60
2023/08/24 10:41:53;;;;;;;11.23;5.68;;;21.20;98.00;;;;;;5097576;28;20053;-60
2023/08/24 10:44:22;;;;;;;11.18;6.15;;;21.20;98.60;;;;;;5098016;28;20055;-60
2023/08/24 10:47:08;;;;;;;15.05;6.85;;;21.20;98.10;;;;;;5098404;28;20043;-60
2023/08/24 10:49:34;;;;;;;11.10;6.07;;;21.10;98.50;;;;;;5100353;28;20048;-61
2023/08/24 10:52:18;;;;;;;14.30;6.88;;;21.10;99.10;;;;;;5101913;28;20036;-61
2023/08/24 10:54:45;;;;;;;10.90;5.50;;;21.10;99.90;;;;;;5101612;28;20063;-60
2023/08/24 10:57:21;;;;;;;9.85;6.05;;;21.00;99.90;;;;;;5081131;28;20047;-60
2023/08/24 11:00:10;;;;;;;11.77;7.40;;;21.00;99.90;;;;;;5081474;28;20043;-60
2023/08/24 11:02:44;;;;;;;9.55;5.95;;;21.00;99.90;;;;;;5080132;28;20181;-60
2023/08/24 11:05:30;;;;;;;11.18;6.50;;;21.00;99.90;;;;;;5081029;28;20096;-60
2023/08/24 11:08:02;;;;;;;14.10;7.90;;;20.90;99.90;;;;;;5080266;28;20052;-60
2023/08/24 11:10:46;;;;;;;11.98;7.65;;;20.90;99.90;;;;;;5079852;28;20052;-61
2023/08/24 11:13:16;;;;;;;11.38;8.10;;;20.90;99.90;;;;;;5080584;28;20077;-61
2023/08/24 11:15:43;;;;;;;14.70;8.27;;;20.80;99.90;;;;;;5080200;28;20130;-60
2023/08/24 11:18:26;;;;;;;12.80;8.63;;;20.80;99.90;;;;;;5080885;28;20075;-60
2023/08/24 11:21:02;;;;;;;14.38;8.75;;;20.80;99.90;;;;;;5080551;28;20076;-61
2023/08/24 11:23:29;;;;;;;14.40;9.63;;;20.80;99.90;;;;;;5079737;28;20083;-60
2023/08/24 11:25:57;;;;;;;14.65;8.57;;;20.80;99.90;;;;;;5080277;28;20068;-61
2023/08/24 11:28:25;;;;;;;12.50;8.77;;;20.70;99.90;;;;;;5079832;28;20044;-61
2023/08/24 11:30:52;;;;;;;13.85;9.00;;;20.70;99.90;;;;;;5080764;28;20044;-60
2023/08/24 11:33:30;;;;;;;12.57;8.82;;;20.70;99.90;;;;;;5080520;28;20057;-60
2023/08/24 11:35:56;;;;;;;12.93;10.02;;;20.70;99.90;;;;;;5080246;28;20119;-61
2023/08/24 11:38:22;;;;;;;14.38;9.30;;;20.60;99.90;;;;;;5080988;28;20089;-61
2023/08/24 11:40:48;;;;;;;16.67;9.90;;;20.70;99.90;;;;;;5079590;28;20140;-62
2023/08/24 11:43:25;;;;;;;16.20;9.93;;;20.70;99.90;;;;;;5080746;28;20072;-61
2023/08/24 11:45:51;;;;;;;14.48;9.32;;;20.80;99.90;;;;;;5080363;28;20054;-62
2023/08/24 11:48:17;;;;;;;11.55;9.05;;;20.80;99.90;;;;;;5080448;28;20134;-61
2023/08/24 11:50:43;;;;;;;14.13;9.50;;;20.80;99.90;;;;;;5079146;28;20055;-62
2023/08/24 11:53:08;;;;;;;16.00;9.38;;;20.80;99.90;;;;;;5080042;28;20095;-61
2023/08/24 11:55:39;;;;;;;15.73;10.20;;;20.90;99.90;;;;;;5098764;28;20032;-61
2023/08/24 11:58:04;;;;;;;16.75;9.52;;;21.00;99.90;;;;;;5084504;28;20044;-61
2023/08/24 12:00:31;;;;;;;14.95;9.95;;;21.00;99.90;;;;;;5120090;28;20130;-61
2023/08/24 12:02:57;;;;;;;16.25;9.93;;;21.10;99.90;;;;;;5111262;28;20198;-61
2023/08/24 12:05:26;;;;;;;13.75;9.88;;;21.10;99.90;;;;;;5110849;28;20093;-61
2023/08/24 12:07:53;;;;;;;14.00;10.82;;;21.10;99.90;;;;;;5110331;28;20036;-61
2023/08/24 12:10:19;;;;;;;13.18;9.85;;;21.10;99.90;;;;;;5111248;28;20036;-62
2023/08/24 12:12:45;;;;;;;16.55;10.60;;;21.10;99.90;;;;;;5120761;28;20040;-62
2023/08/24 12:15:20;;;;;;;15.05;10.80;;;21.10;99.90;;;;;;5119421;28;20046;-62
2023/08/24 12:17:47;;;;;;;15.35;10.60;;;21.10;99.90;;;;;;5120789;28;20103;-62
2023/08/24 12:20:24;;;;;;;13.65;10.43;;;21.10;99.90;;;;;;5119753;28;20047;-61
2023/08/24 12:22:51;;;;;;;15.65;12.52;;;21.20;99.90;;;;;;5120124;28;20042;-62
2023/08/24 12:25:17;;;;;;;14.07;9.90;;;21.10;99.90;;;;;;5118764;28;20084;-61
2023/08/24 12:27:43;;;;;;;15.75;10.75;;;21.20;99.90;;;;;;5119038;28;20036;-62
2023/08/24 12:30:10;;;;;;;16.25;10.98;;;21.20;99.90;;;;;;5120085;28;20050;-61
2023/08/24 12:32:47;;;;;;;15.25;10.68;;;21.20;99.90;;;;;;5118044;28;20513;-61
2023/08/24 12:35:15;;;;;;;13.77;10.05;;;21.20;99.90;;;;;;5119225;28;20055;-61
2023/08/24 12:37:40;;;;;;;12.90;9.82;;;21.20;99.90;;;;;;5119823;28;20095;-62
2023/08/24 12:40:07;;;;;;;13.80;11.07;;;21.40;99.90;;;;;;5119597;28;20050;-62
2023/08/24 12:42:33;;;;;;;15.63;11.27;;;21.40;99.90;;;;;;5120318;28;20040;-62